createdAt,value
2022-10-01T00:01:37.541Z,63.13
2022-10-01T00:07:03.152Z,63.79
2022-10-01T00:12:23.861Z,63.72
2022-10-01T00:17:44.580Z,63.57
2022-10-01T00:23:05.147Z,63.62
2022-10-01T00:28:26.234Z,63.64
2022-10-01T00:33:47.147Z,63.62
2022-10-01T00:39:10.320Z,63.47
2022-10-01T00:44:38.029Z,64.15
2022-10-01T00:50:20.079Z,63.61
2022-10-01T00:55:48.657Z,64.22
2022-10-01T01:01:10.254Z,63.94
2022-10-01T01:06:30.981Z,63.84
2022-10-01T01:12:11.285Z,63.71
2022-10-01T01:17:50.947Z,63.46
2022-10-01T01:23:36.678Z,63.81
2022-10-01T01:29:04.679Z,63.10
2022-10-01T01:34:30.767Z,63.61
2022-10-01T01:39:55.270Z,64.24
2022-10-01T01:45:21.822Z,63.64
2022-10-01T01:50:49.121Z,63.85
2022-10-01T01:56:09.841Z,63.65
2022-10-01T02:01:40.137Z,64.36
2022-10-01T02:07:28.696Z,64.50
2022-10-01T02:13:04.296Z,64.52
2022-10-01T02:18:34.579Z,64.45
2022-10-01T02:24:01.051Z,64.78
2022-10-01T02:29:23.938Z,64.36
2022-10-01T02:34:49.392Z,64.63
2022-10-01T02:40:15.924Z,64.26
2022-10-01T02:45:40.394Z,64.64
2022-10-01T02:51:23.016Z,64.85
2022-10-01T02:57:02.223Z,64.62
2022-10-01T03:02:23.914Z,65.15
2022-10-01T03:07:44.621Z,65.08
2022-10-01T03:13:06.561Z,64.97
2022-10-01T03:18:27.299Z,65.24
2022-10-01T03:23:47.849Z,64.78
2022-10-01T03:29:08.493Z,64.96
2022-10-01T03:34:29.188Z,65.63
2022-10-01T03:39:49.964Z,65.48
2022-10-01T03:45:10.752Z,65.78
2022-10-01T03:50:31.757Z,65.75
2022-10-01T03:55:52.509Z,65.74
2022-10-01T04:01:13.242Z,65.82
2022-10-01T04:06:33.818Z,66.46
2022-10-01T04:11:54.950Z,66.03
2022-10-01T04:17:15.403Z,66.15
2022-10-01T04:22:40.414Z,66.54
2022-10-01T04:28:04.080Z,66.84
2022-10-01T04:33:24.893Z,67.28
2022-10-01T04:38:45.954Z,67.00
2022-10-01T04:44:06.716Z,66.86
2022-10-01T04:49:27.843Z,66.76
2022-10-01T04:54:48.621Z,66.88
2022-10-01T05:00:12.180Z,67.21
2022-10-01T05:05:35.055Z,66.90
2022-10-01T05:10:55.735Z,66.97
2022-10-01T05:16:16.453Z,67.30
2022-10-01T05:21:37.667Z,67.43
2022-10-01T05:26:58.643Z,67.39
2022-10-01T05:32:19.776Z,67.89
2022-10-01T05:37:40.617Z,67.29
2022-10-01T05:43:03.151Z,67.44
2022-10-01T05:48:23.962Z,67.18
2022-10-01T05:53:50.215Z,67.72
2022-10-01T05:59:12.089Z,67.94
2022-10-01T06:04:34.757Z,67.74
2022-10-01T06:09:57.225Z,67.67
2022-10-01T06:15:18.718Z,68.27
2022-10-01T06:20:41.083Z,67.93
2022-10-01T06:26:05.607Z,67.90
2022-10-01T06:31:26.610Z,68.24
2022-10-01T06:36:47.162Z,68.19
2022-10-01T06:42:07.761Z,68.10
2022-10-01T06:47:28.621Z,68.58
2022-10-01T06:52:50.555Z,68.60
2022-10-01T06:58:21.018Z,68.86
2022-10-01T07:03:41.957Z,69.07
2022-10-01T07:09:02.575Z,68.94
2022-10-01T07:14:23.462Z,69.33
2022-10-01T07:19:43.982Z,68.75
2022-10-01T07:25:05.325Z,68.51
2022-10-01T07:30:26.892Z,68.66
2022-10-01T07:35:48.360Z,68.76
2022-10-01T07:41:09.687Z,69.19
2022-10-01T07:46:34.505Z,69.12
2022-10-01T07:51:55.829Z,69.13
2022-10-01T07:57:16.565Z,69.66
2022-10-01T08:02:37.707Z,69.39
2022-10-01T08:08:06.790Z,69.38
2022-10-01T08:13:27.371Z,69.30
2022-10-01T08:18:47.836Z,68.65
2022-10-01T08:24:09.245Z,68.62
2022-10-01T08:29:30.018Z,68.88
2022-10-01T08:34:56.484Z,68.59
2022-10-01T08:40:21.672Z,68.67
2022-10-01T08:45:47.670Z,68.58
2022-10-01T08:51:15.562Z,68.47
2022-10-01T08:56:46.311Z,68.27
2022-10-01T09:02:21.387Z,68.12
2022-10-01T09:08:01.163Z,68.15
2022-10-01T09:13:40.489Z,67.61
2022-10-01T09:19:32.352Z,67.47
2022-10-01T09:25:25.684Z,67.37
2022-10-01T09:31:01.417Z,67.15
2022-10-01T09:37:01.167Z,66.89
2022-10-01T09:42:26.560Z,67.16
2022-10-01T09:47:51.459Z,66.76
2022-10-01T09:53:19.523Z,66.90
2022-10-01T09:58:42.830Z,67.25
2022-10-01T10:04:03.711Z,66.69
2022-10-01T10:09:30.768Z,66.68
2022-10-01T10:14:51.457Z,66.59
2022-10-01T10:20:23.400Z,66.05
2022-10-01T10:25:44.349Z,66.17
2022-10-01T10:31:11.289Z,66.47
2022-10-01T10:36:35.874Z,66.24
2022-10-01T10:41:58.882Z,65.97
2022-10-01T10:47:21.906Z,65.77
2022-10-01T10:52:45.728Z,65.54
2022-10-01T10:58:11.046Z,65.72
2022-10-01T11:03:33.283Z,65.66
2022-10-01T11:09:07.401Z,65.65
2022-10-01T11:14:34.303Z,65.55
2022-10-01T11:20:04.611Z,65.45
2022-10-01T11:26:06.071Z,65.36
2022-10-01T11:31:43.434Z,65.47
2022-10-01T11:37:35.608Z,65.08
2022-10-01T11:43:04.171Z,65.03
2022-10-01T11:48:31.547Z,64.02
2022-10-01T11:54:04.111Z,63.56
2022-10-01T11:59:43.399Z,63.13
2022-10-01T12:05:15.288Z,63.23
2022-10-01T12:10:44.857Z,63.29
2022-10-01T12:16:20.017Z,63.25
2022-10-01T12:21:51.887Z,63.30
2022-10-01T12:27:31.188Z,63.24
2022-10-01T12:33:04.985Z,62.90
2022-10-01T12:38:47.255Z,63.26
2022-10-01T12:44:38.141Z,63.51
2022-10-01T12:50:06.296Z,63.92
2022-10-01T12:55:54.933Z,64.12
2022-10-01T13:01:41.158Z,64.49
2022-10-01T13:07:31.683Z,64.75
2022-10-01T13:13:21.572Z,64.86
2022-10-01T13:18:51.778Z,65.04
2022-10-01T13:24:34.152Z,65.42
2022-10-01T13:30:14.073Z,66.12
2022-10-01T13:35:39.608Z,66.21
2022-10-01T13:41:06.900Z,66.56
2022-10-01T13:46:31.291Z,66.73
2022-10-01T13:51:53.039Z,66.99
2022-10-01T13:57:34.743Z,67.27
2022-10-01T14:03:39.346Z,67.34
2022-10-01T14:09:15.475Z,67.51
2022-10-01T14:14:58.590Z,68.07
2022-10-01T14:20:23.499Z,67.95
2022-10-01T14:25:50.316Z,67.81
2022-10-01T14:31:29.518Z,68.19
2022-10-01T14:36:53.586Z,68.07
2022-10-01T14:42:18.396Z,68.19
2022-10-01T14:47:40.342Z,68.55
2022-10-01T14:53:01.575Z,68.50
2022-10-01T14:58:35.948Z,68.29
2022-10-01T15:03:56.686Z,68.57
2022-10-01T15:09:19.229Z,68.92
2022-10-01T15:14:41.266Z,68.86
2022-10-01T15:20:02.742Z,69.00
2022-10-01T15:25:26.708Z,69.31
2022-10-01T15:30:47.508Z,69.32
2022-10-01T15:36:15.518Z,69.62
2022-10-01T15:41:37.777Z,69.31
2022-10-01T15:47:20.640Z,69.44
2022-10-01T15:52:54.265Z,69.57
2022-10-01T15:58:37.165Z,69.67
2022-10-01T16:04:04.267Z,69.89
2022-10-01T16:09:30.808Z,69.76
2022-10-01T16:15:03.932Z,69.91
2022-10-01T16:20:39.013Z,69.86
2022-10-01T16:26:00.007Z,69.71
2022-10-01T16:31:20.844Z,69.85
2022-10-01T16:36:41.586Z,70.11
2022-10-01T16:42:22.800Z,70.11
2022-10-01T16:47:44.116Z,70.05
2022-10-01T16:53:05.145Z,70.28
2022-10-01T16:58:26.086Z,70.06
2022-10-01T17:03:47.179Z,70.44
2022-10-01T17:09:08.279Z,70.03
2022-10-01T17:14:28.901Z,70.53
2022-10-01T17:19:49.864Z,70.52
2022-10-01T17:25:19.388Z,70.48
2022-10-01T17:30:46.575Z,70.46
2022-10-01T17:36:09.261Z,70.42
2022-10-01T17:41:29.997Z,70.53
2022-10-01T17:46:50.472Z,70.24
2022-10-01T17:52:11.782Z,70.74
2022-10-01T17:57:32.899Z,70.70
2022-10-01T18:02:54.034Z,70.31
2022-10-01T18:08:15.459Z,70.57
2022-10-01T18:13:37.171Z,70.66
2022-10-01T18:24:43.457Z,70.91
2022-10-01T18:30:05.755Z,70.84
2022-10-01T18:35:34.489Z,70.61
2022-10-01T18:40:59.870Z,71.18
2022-10-01T18:46:43.962Z,70.84
2022-10-01T18:52:34.285Z,70.94
2022-10-01T18:58:23.288Z,71.28
2022-10-01T19:04:00.714Z,71.16
2022-10-01T19:09:43.021Z,71.25
2022-10-01T19:15:24.779Z,71.13
2022-10-01T19:20:58.297Z,71.39
2022-10-01T19:26:35.073Z,71.24
2022-10-01T19:32:01.697Z,71.22
2022-10-01T19:37:42.507Z,71.67
2022-10-01T19:43:24.407Z,71.41
2022-10-01T19:48:52.566Z,71.33
2022-10-01T19:54:19.590Z,71.38
2022-10-01T19:59:41.548Z,71.47
2022-10-01T20:05:12.654Z,71.77
2022-10-01T20:10:49.134Z,71.34
2022-10-01T20:16:30.377Z,71.61
2022-10-01T20:22:20.016Z,71.68
2022-10-01T20:28:01.300Z,71.86
2022-10-01T20:33:34.813Z,71.79
2022-10-01T20:39:04.636Z,71.67
2022-10-01T20:44:31.941Z,71.67
2022-10-01T20:50:09.323Z,71.50
2022-10-01T20:55:40.949Z,71.76
2022-10-01T21:01:14.033Z,71.78
2022-10-01T21:06:39.830Z,71.97
2022-10-01T21:12:10.385Z,71.86
2022-10-01T21:17:39.042Z,71.78
2022-10-01T21:23:33.606Z,71.98
2022-10-01T21:29:03.588Z,72.04
2022-10-01T21:35:07.734Z,71.78
2022-10-01T21:41:07.196Z,71.63
2022-10-01T21:46:38.551Z,71.39
2022-10-01T21:52:10.735Z,71.68
2022-10-01T21:57:50.076Z,71.60
2022-10-01T22:03:26.260Z,71.57
2022-10-01T22:09:18.575Z,71.75
2022-10-01T22:14:41.368Z,71.44
2022-10-01T22:20:04.718Z,71.22
2022-10-01T22:25:27.041Z,71.52
2022-10-01T22:30:51.435Z,71.60
2022-10-01T22:36:19.700Z,71.31
2022-10-01T22:41:46.809Z,71.53
2022-10-01T22:47:49.846Z,71.35
2022-10-01T22:53:43.307Z,71.15
2022-10-01T22:59:04.128Z,71.32
2022-10-01T23:04:30.809Z,71.56
2022-10-01T23:10:01.526Z,71.24
2022-10-01T23:15:46.497Z,71.30
2022-10-01T23:21:32.715Z,71.01
2022-10-01T23:27:25.399Z,71.15
2022-10-01T23:33:07.983Z,71.17
2022-10-01T23:38:46.446Z,71.17
2022-10-01T23:44:21.959Z,71.10
2022-10-01T23:49:50.961Z,71.39
2022-10-01T23:55:51.380Z,71.15
